Terminal Aerodrome Forecast
Issued by NWS

Home | Current Version | Previous Version | Graphics & Text | Print | Product List | Glossary On
Versions: 1 2 3 4 5 6 7 8 9 10 11 12 13 14 15 16 17
000
FTUS43 KMPX 200500
TAFAXN
TAF
KAXN 200520Z 2006/2106 17010KT 4SM BR OVC005
     FM201000 17008KT 2SM BR OVC003
     FM201500 18008KT 4SM BR OVC007
     FM202000 16010KT 6SM HZ OVC015=

USA.gov is the U.S. government's official web portal to all federal, state and local government web resources and services.